createdAt,value
2023-03-05T00:01:28.710Z,4.85
2023-03-05T00:03:59.079Z,5.47
2023-03-05T00:06:28.871Z,4.68
2023-03-05T00:08:58.542Z,4.37
2023-03-05T00:11:30.158Z,5.30
2023-03-05T00:13:58.916Z,4.65
2023-03-05T00:16:28.257Z,4.80
2023-03-05T00:18:57.789Z,4.00
2023-03-05T00:21:27.345Z,5.50
2023-03-05T00:23:55.884Z,5.17
2023-03-05T00:26:25.514Z,4.57
2023-03-05T00:28:54.830Z,4.70
2023-03-05T00:31:31.551Z,4.18
2023-03-05T00:34:02.217Z,5.00
2023-03-05T00:36:30.606Z,4.80
2023-03-05T00:38:59.083Z,5.32
2023-03-05T00:41:28.121Z,5.15
2023-03-05T00:43:56.112Z,4.65
2023-03-05T00:46:24.575Z,4.57
2023-03-05T00:48:52.435Z,4.50
2023-03-05T00:51:20.702Z,4.62
2023-03-05T00:53:48.290Z,4.25
2023-03-05T00:56:16.057Z,3.00
2023-03-05T00:58:43.549Z,3.75
2023-03-05T01:01:11.317Z,3.87
2023-03-05T01:03:39.294Z,4.35
2023-03-05T01:06:10.032Z,3.58
2023-03-05T01:08:38.009Z,3.65
2023-03-05T01:11:07.186Z,3.65
2023-03-05T01:13:35.236Z,4.03
2023-03-05T01:16:03.718Z,4.00
2023-03-05T01:18:31.729Z,4.60
2023-03-05T01:20:59.545Z,4.00
2023-03-05T01:23:27.142Z,4.07
2023-03-05T01:25:59.509Z,3.90
2023-03-05T01:28:28.029Z,4.53
2023-03-05T01:30:55.900Z,4.30
2023-03-05T01:33:23.585Z,4.55
2023-03-05T01:35:51.252Z,3.97
2023-03-05T01:38:19.323Z,4.20
2023-03-05T01:40:47.076Z,4.22
2023-03-05T01:43:14.523Z,4.30
2023-03-05T01:46:16.915Z,4.30
2023-03-05T01:48:49.937Z,4.50
2023-03-05T01:51:20.262Z,4.63
2023-03-05T01:53:48.065Z,4.60
2023-03-05T01:56:16.866Z,4.28
2023-03-05T01:58:45.557Z,4.35
2023-03-05T02:01:13.190Z,4.28
2023-03-05T02:03:42.469Z,4.67
2023-03-05T02:06:10.260Z,4.07
2023-03-05T02:08:37.790Z,4.03
2023-03-05T02:11:06.093Z,5.00
2023-03-05T02:13:38.670Z,4.82
2023-03-05T02:16:07.809Z,4.10
2023-03-05T02:18:35.461Z,4.03
2023-03-05T02:21:04.376Z,4.43
2023-03-05T02:23:36.484Z,4.70
2023-03-05T02:26:06.936Z,4.30
2023-03-05T02:28:46.513Z,3.97
2023-03-05T02:31:18.434Z,4.70
2023-03-05T02:33:47.075Z,4.10
2023-03-05T02:36:14.862Z,4.47
2023-03-05T02:38:43.796Z,4.05
2023-03-05T02:41:12.649Z,4.50
2023-03-05T02:43:40.341Z,4.28
2023-03-05T02:46:09.003Z,4.20
2023-03-05T02:48:36.903Z,4.75
2023-03-05T02:51:06.253Z,4.25
2023-03-05T02:53:33.742Z,4.47
2023-03-05T02:56:01.609Z,4.93
2023-03-05T02:58:29.480Z,4.05
2023-03-05T03:00:57.099Z,4.32
2023-03-05T03:03:25.147Z,4.65
2023-03-05T03:05:52.730Z,4.80
2023-03-05T03:08:20.275Z,4.72
2023-03-05T03:10:48.108Z,4.35
2023-03-05T03:13:15.626Z,5.40
2023-03-05T03:15:43.114Z,5.47
2023-03-05T03:18:10.978Z,6.30
2023-03-05T03:20:39.617Z,6.05
2023-03-05T03:23:07.483Z,6.12
2023-03-05T03:25:35.281Z,6.55
2023-03-05T03:28:03.024Z,6.03
2023-03-05T03:30:30.512Z,5.27
2023-03-05T03:32:58.251Z,5.28
2023-03-05T03:35:25.785Z,4.95
2023-03-05T03:37:53.370Z,5.70
2023-03-05T03:40:22.286Z,4.78
2023-03-05T03:42:54.854Z,5.60
2023-03-05T03:45:22.924Z,4.97
2023-03-05T03:47:51.679Z,5.60
2023-03-05T03:50:19.242Z,5.10
2023-03-05T03:52:47.423Z,4.57
2023-03-05T03:55:14.897Z,4.73
2023-03-05T03:57:43.580Z,4.25
2023-03-05T04:00:11.893Z,4.12
2023-03-05T04:02:39.451Z,4.78
2023-03-05T04:05:07.900Z,4.70
2023-03-05T04:07:35.467Z,3.63
2023-03-05T04:10:03.362Z,3.70
2023-03-05T04:12:31.987Z,4.60
2023-03-05T04:14:59.610Z,4.37
2023-03-05T04:17:27.071Z,4.62
2023-03-05T04:19:54.886Z,5.03
2023-03-05T04:22:22.442Z,5.07
2023-03-05T04:24:50.041Z,4.40
2023-03-05T04:27:17.829Z,5.15
2023-03-05T04:29:45.533Z,5.40
2023-03-05T04:32:13.063Z,5.63
2023-03-05T04:34:40.925Z,5.70
2023-03-05T04:37:08.455Z,5.55
2023-03-05T04:39:35.978Z,5.53
2023-03-05T04:42:04.133Z,5.03
2023-03-05T04:44:31.720Z,5.07
2023-03-05T04:46:59.185Z,4.15
2023-03-05T04:49:27.018Z,5.20
2023-03-05T04:51:54.574Z,4.97
2023-03-05T04:54:22.426Z,4.05
2023-03-05T04:56:50.477Z,4.40
2023-03-05T04:59:17.945Z,5.30
2023-03-05T05:01:45.488Z,4.32
2023-03-05T05:04:13.528Z,4.93
2023-03-05T05:06:40.961Z,4.40
2023-03-05T05:09:08.504Z,4.60
2023-03-05T05:11:36.324Z,4.35
2023-03-05T05:14:04.350Z,4.50
2023-03-05T05:16:32.021Z,4.20
2023-03-05T05:18:59.891Z,4.15
2023-03-05T05:21:27.463Z,5.93
2023-03-05T05:23:54.973Z,6.00
2023-03-05T05:26:22.833Z,5.50
2023-03-05T05:28:50.366Z,5.35
2023-03-05T05:31:18.300Z,4.15
2023-03-05T05:33:48.763Z,5.27
2023-03-05T05:36:19.339Z,4.32
2023-03-05T05:38:47.657Z,4.32
2023-03-05T05:41:17.925Z,4.40
2023-03-05T05:43:45.829Z,5.07
2023-03-05T05:46:17.054Z,4.93
2023-03-05T05:48:45.742Z,5.15
2023-03-05T05:51:16.416Z,4.65
2023-03-05T05:53:44.890Z,4.80
2023-03-05T05:56:13.564Z,4.87
2023-03-05T05:58:41.597Z,4.77
2023-03-05T06:01:26.487Z,4.18
2023-03-05T06:03:55.781Z,5.43
2023-03-05T06:06:24.896Z,5.57
2023-03-05T06:08:52.994Z,5.45
2023-03-05T06:11:22.009Z,5.37
2023-03-05T06:13:49.996Z,5.37
2023-03-05T06:16:20.767Z,5.35
2023-03-05T06:18:48.638Z,6.03
2023-03-05T06:21:17.692Z,6.20
2023-03-05T06:23:46.320Z,6.07
2023-03-05T06:26:17.368Z,6.03
2023-03-05T06:28:45.161Z,5.10
2023-03-05T06:31:16.118Z,5.82
2023-03-05T06:33:44.309Z,5.85
2023-03-05T06:36:14.646Z,5.27
2023-03-05T06:38:42.920Z,4.53
2023-03-05T06:41:16.327Z,6.12
2023-03-05T06:43:46.284Z,6.07
2023-03-05T06:46:20.082Z,5.95
2023-03-05T06:48:48.212Z,5.90
2023-03-05T06:51:25.246Z,8.93
2023-03-05T06:53:53.648Z,7.97
2023-03-05T06:56:22.403Z,6.45
2023-03-05T06:58:51.386Z,5.37
2023-03-05T07:01:20.595Z,4.57
2023-03-05T07:03:53.167Z,5.50
2023-03-05T07:06:21.896Z,7.00
2023-03-05T07:08:50.236Z,6.87
2023-03-05T07:11:20.382Z,5.75
2023-03-05T07:13:48.872Z,7.37
2023-03-05T07:16:19.545Z,6.95
2023-03-05T07:18:47.713Z,7.37
2023-03-05T07:21:17.973Z,6.62
2023-03-05T07:23:46.439Z,7.62
2023-03-05T07:26:14.765Z,8.60
2023-03-05T07:28:42.306Z,6.47
2023-03-05T07:31:19.348Z,4.80
2023-03-05T07:33:50.718Z,5.60
2023-03-05T07:36:18.959Z,5.55
2023-03-05T07:38:46.774Z,5.17
2023-03-05T07:41:20.071Z,5.00
2023-03-05T07:43:53.624Z,4.90
2023-03-05T07:46:24.287Z,4.78
2023-03-05T07:48:54.646Z,4.87
2023-03-05T07:51:24.278Z,5.20
2023-03-05T07:53:53.965Z,4.12
2023-03-05T07:56:32.078Z,3.35
2023-03-05T07:59:01.361Z,3.90
2023-03-05T08:01:30.036Z,3.53
2023-03-05T08:03:58.204Z,2.83
2023-03-05T08:06:25.839Z,3.12
2023-03-05T08:08:53.441Z,3.20
2023-03-05T08:11:22.126Z,3.65
2023-03-05T08:13:49.694Z,16.35
2023-03-05T08:16:20.187Z,12.13
2023-03-05T08:18:48.501Z,4.07
2023-03-05T08:21:21.760Z,3.03
2023-03-05T08:23:49.747Z,2.95
2023-03-05T08:26:20.773Z,3.42
2023-03-05T08:28:49.113Z,3.17
2023-03-05T08:31:20.043Z,2.50
2023-03-05T08:33:48.997Z,3.17
2023-03-05T08:36:16.987Z,3.10
2023-03-05T08:38:46.739Z,3.15
2023-03-05T08:41:16.606Z,3.13
2023-03-05T08:43:44.849Z,2.92
2023-03-05T08:46:13.607Z,2.62
2023-03-05T08:48:41.232Z,2.40
2023-03-05T08:51:12.788Z,2.50
2023-03-05T08:53:42.792Z,2.60
2023-03-05T08:56:10.851Z,2.17
2023-03-05T08:58:38.523Z,2.22
2023-03-05T09:01:06.771Z,2.90
2023-03-05T09:03:35.028Z,2.30
2023-03-05T09:06:05.024Z,2.30
2023-03-05T09:08:33.099Z,2.10
2023-03-05T09:11:06.159Z,1.98
2023-03-05T09:13:33.951Z,2.30
2023-03-05T09:16:05.709Z,2.12
2023-03-05T09:18:36.680Z,2.17
2023-03-05T09:21:06.506Z,2.15
2023-03-05T09:23:34.101Z,2.62
2023-03-05T09:26:02.428Z,1.85
2023-03-05T09:28:30.265Z,1.95
2023-03-05T09:30:57.768Z,2.40
2023-03-05T09:33:25.254Z,1.98
2023-03-05T09:35:53.107Z,2.08
2023-03-05T09:38:21.366Z,2.15
2023-03-05T09:41:03.647Z,2.50
2023-03-05T09:43:55.229Z,2.23
2023-03-05T09:46:36.544Z,1.83
2023-03-05T09:49:14.577Z,2.30
2023-03-05T09:51:46.525Z,2.42
2023-03-05T09:54:25.021Z,1.92
2023-03-05T09:57:00.426Z,2.10
2023-03-05T09:59:47.671Z,2.50
2023-03-05T10:02:30.466Z,2.40
2023-03-05T10:05:03.131Z,2.10
2023-03-05T10:07:33.764Z,2.20
2023-03-05T10:10:14.353Z,2.10
2023-03-05T10:12:50.312Z,1.87
2023-03-05T10:15:31.915Z,1.90
2023-03-05T10:18:00.051Z,2.22
2023-03-05T10:20:33.869Z,1.90
2023-03-05T10:23:24.865Z,1.97
2023-03-05T10:25:55.541Z,2.40
2023-03-05T10:28:54.026Z,2.25
2023-03-05T10:31:25.041Z,2.30
2023-03-05T10:34:12.357Z,2.20
2023-03-05T10:37:10.932Z,1.97
2023-03-05T10:39:58.583Z,2.17
2023-03-05T10:42:46.637Z,1.48
2023-03-05T10:45:29.456Z,2.47
2023-03-05T10:48:09.445Z,2.45
2023-03-05T10:50:47.006Z,2.47
2023-03-05T10:53:27.746Z,2.60
2023-03-05T10:55:57.880Z,2.20
2023-03-05T10:58:27.588Z,2.37
2023-03-05T11:00:59.898Z,2.33
2023-03-05T11:03:51.108Z,3.27
2023-03-05T11:06:33.701Z,3.28
2023-03-05T11:09:20.490Z,3.03
2023-03-05T11:12:06.618Z,3.10
2023-03-05T11:14:38.790Z,2.40
2023-03-05T11:17:34.393Z,2.07
2023-03-05T11:20:26.790Z,2.58
2023-03-05T11:23:23.652Z,2.53
2023-03-05T11:25:59.028Z,2.33
2023-03-05T11:28:35.633Z,2.28
2023-03-05T11:31:15.611Z,2.30
2023-03-05T11:34:04.199Z,2.28
2023-03-05T11:36:59.023Z,2.70
2023-03-05T11:39:27.409Z,2.50
2023-03-05T11:41:59.669Z,2.25
2023-03-05T11:44:34.335Z,2.77
2023-03-05T11:47:19.839Z,2.28
2023-03-05T11:49:50.492Z,1.98
2023-03-05T11:52:33.411Z,2.08
2023-03-05T11:55:46.928Z,2.00
2023-03-05T11:58:36.365Z,1.90
2023-03-05T12:01:11.300Z,1.58
2023-03-05T12:03:39.319Z,1.95
2023-03-05T12:06:37.694Z,2.20
2023-03-05T12:09:30.229Z,2.10
2023-03-05T12:12:20.140Z,1.87
2023-03-05T12:15:03.710Z,2.20
2023-03-05T12:18:00.693Z,1.98
2023-03-05T12:20:44.306Z,2.12
2023-03-05T12:23:20.145Z,1.62
2023-03-05T12:25:53.502Z,2.27
2023-03-05T12:28:41.754Z,2.78
2023-03-05T12:31:09.611Z,1.85
2023-03-05T12:33:40.129Z,2.30
2023-03-05T12:36:19.738Z,2.42
2023-03-05T12:38:52.515Z,2.20
2023-03-05T12:41:23.078Z,1.90
2023-03-05T12:44:06.062Z,2.58
2023-03-05T12:46:35.584Z,2.03
2023-03-05T12:49:28.408Z,2.35
2023-03-05T12:51:59.183Z,2.10
2023-03-05T12:54:31.397Z,2.00
2023-03-05T12:57:07.145Z,1.55
2023-03-05T12:59:45.331Z,1.95
2023-03-05T13:02:33.840Z,2.03
2023-03-05T13:05:08.576Z,2.10
2023-03-05T13:07:36.662Z,1.80
2023-03-05T13:10:04.756Z,1.83
2023-03-05T13:12:32.575Z,2.00
2023-03-05T13:15:06.023Z,2.10
2023-03-05T13:17:44.440Z,1.77
2023-03-05T13:20:37.661Z,2.17
2023-03-05T13:23:18.433Z,3.28
2023-03-05T13:26:18.700Z,2.97
2023-03-05T13:29:05.128Z,3.15
2023-03-05T13:31:35.463Z,2.90
2023-03-05T13:34:17.201Z,3.40
2023-03-05T13:36:54.699Z,3.72
2023-03-05T13:39:27.464Z,3.08
2023-03-05T13:42:06.146Z,3.28
2023-03-05T13:44:35.041Z,3.33
2023-03-05T13:47:08.639Z,3.08
2023-03-05T13:49:36.573Z,3.03
2023-03-05T13:52:04.418Z,2.60
2023-03-05T13:54:32.242Z,2.78
2023-03-05T13:57:05.944Z,2.90
2023-03-05T13:59:36.522Z,2.80
2023-03-05T14:02:17.018Z,3.30
2023-03-05T14:04:47.425Z,3.20
2023-03-05T14:07:21.132Z,3.42
2023-03-05T14:09:52.006Z,2.63
2023-03-05T14:12:22.200Z,2.25
2023-03-05T14:14:50.437Z,1.92
2023-03-05T14:17:23.430Z,1.85
2023-03-05T14:19:52.183Z,2.20
2023-03-05T14:22:36.799Z,2.30
2023-03-05T14:25:07.085Z,2.20
2023-03-05T14:27:36.673Z,1.90
2023-03-05T14:30:06.312Z,2.50
2023-03-05T14:32:36.523Z,2.78
2023-03-05T14:35:06.290Z,2.60
2023-03-05T14:37:42.266Z,3.20
2023-03-05T14:40:10.050Z,3.45
2023-03-05T14:43:04.723Z,4.65
2023-03-05T14:45:39.545Z,4.05
2023-03-05T14:48:08.597Z,3.73
2023-03-05T14:50:51.748Z,3.72
2023-03-05T14:53:22.964Z,4.87
2023-03-05T14:55:56.670Z,3.83
2023-03-05T14:58:27.579Z,4.45
2023-03-05T15:00:56.880Z,5.03
2023-03-05T15:03:25.630Z,5.00
2023-03-05T15:05:56.748Z,5.55
2023-03-05T15:08:28.346Z,5.60
2023-03-05T15:10:56.333Z,6.10
2023-03-05T15:13:24.274Z,9.13
2023-03-05T15:15:52.795Z,8.32
2023-03-05T15:18:22.708Z,5.82
2023-03-05T15:20:54.880Z,5.82
2023-03-05T15:23:22.798Z,5.15
2023-03-05T15:25:50.767Z,6.63
2023-03-05T15:28:18.301Z,5.30
2023-03-05T15:30:47.665Z,6.43
2023-03-05T15:33:17.348Z,5.15
2023-03-05T15:35:45.117Z,4.65
2023-03-05T15:38:12.779Z,4.47
2023-03-05T15:40:44.250Z,5.28
2023-03-05T15:43:11.999Z,5.50
2023-03-05T15:45:39.908Z,5.80
2023-03-05T15:48:07.517Z,5.53
2023-03-05T15:50:35.082Z,4.63
2023-03-05T15:53:02.913Z,5.80
2023-03-05T15:55:30.361Z,6.00
2023-03-05T15:57:57.883Z,8.82
2023-03-05T16:00:30.484Z,9.13
2023-03-05T16:02:58.658Z,10.73
2023-03-05T16:05:26.462Z,10.90
2023-03-05T16:07:54.929Z,10.93
2023-03-05T16:10:26.770Z,7.25
2023-03-05T16:13:10.202Z,7.18
2023-03-05T16:15:40.925Z,7.50
2023-03-05T16:18:12.617Z,8.02
2023-03-05T16:20:40.531Z,8.57
2023-03-05T16:23:08.184Z,5.97
2023-03-05T16:25:36.828Z,7.12
2023-03-05T16:28:04.889Z,6.20
2023-03-05T16:30:33.204Z,7.22
2023-03-05T16:33:00.828Z,10.82
2023-03-05T16:35:29.098Z,11.63
2023-03-05T16:37:56.646Z,13.73
2023-03-05T16:40:25.852Z,18.30
2023-03-05T16:42:53.799Z,20.45
2023-03-05T16:45:21.341Z,17.80
2023-03-05T16:47:48.849Z,16.27
2023-03-05T16:50:16.738Z,14.60
2023-03-05T16:52:44.941Z,11.10
2023-03-05T16:55:12.680Z,16.45
2023-03-05T16:57:41.090Z,19.73
2023-03-05T17:00:10.834Z,21.10
2023-03-05T17:02:38.358Z,19.62
2023-03-05T17:05:06.533Z,12.07
2023-03-05T17:07:34.001Z,8.10
2023-03-05T17:10:01.506Z,5.95
2023-03-05T17:12:29.325Z,3.78
2023-03-05T17:14:56.792Z,3.90
2023-03-05T17:17:24.323Z,5.80
2023-03-05T17:19:52.111Z,5.50
2023-03-05T17:22:19.609Z,4.75
2023-03-05T17:24:48.118Z,4.70
2023-03-05T17:27:18.850Z,5.10
2023-03-05T17:29:46.697Z,4.73
2023-03-05T17:32:14.316Z,4.55
2023-03-05T17:34:43.439Z,4.35
2023-03-05T17:37:11.328Z,5.00
2023-03-05T17:39:39.504Z,4.82
2023-03-05T17:42:08.959Z,5.83
2023-03-05T17:44:36.714Z,4.95
2023-03-05T17:47:04.367Z,5.43
2023-03-05T17:49:31.839Z,6.12
2023-03-05T17:51:59.695Z,6.93
2023-03-05T17:54:27.309Z,6.07
2023-03-05T17:56:58.281Z,7.97
2023-03-05T17:59:26.566Z,9.40
2023-03-05T18:01:54.637Z,8.27
2023-03-05T18:04:22.545Z,7.65
2023-03-05T18:06:50.129Z,7.27
2023-03-05T18:09:17.694Z,9.25
2023-03-05T18:11:45.609Z,7.68
2023-03-05T18:14:15.153Z,8.13
2023-03-05T18:16:44.074Z,11.10
2023-03-05T18:19:11.938Z,11.47
2023-03-05T18:21:41.146Z,11.02
2023-03-05T18:24:09.549Z,11.50
2023-03-05T18:26:37.375Z,11.40
2023-03-05T18:29:04.914Z,10.98
2023-03-05T18:31:32.369Z,12.37
2023-03-05T18:34:00.154Z,11.30
2023-03-05T18:36:27.609Z,13.27
2023-03-05T18:38:55.106Z,14.95
2023-03-05T18:41:27.653Z,16.10
2023-03-05T18:43:55.487Z,14.23
2023-03-05T18:46:23.741Z,13.05
2023-03-05T18:48:51.247Z,12.88
2023-03-05T18:51:21.654Z,12.27
2023-03-05T18:53:51.923Z,11.95
2023-03-05T18:56:19.448Z,7.10
2023-03-05T18:58:47.744Z,9.18
2023-03-05T19:01:17.663Z,8.38
2023-03-05T19:03:46.390Z,9.20
2023-03-05T19:06:13.846Z,11.55
2023-03-05T19:08:42.021Z,10.90
2023-03-05T19:11:21.015Z,10.30
2023-03-05T19:13:50.559Z,8.73
2023-03-05T19:16:21.206Z,7.60
2023-03-05T19:19:22.604Z,7.20
2023-03-05T19:21:56.373Z,6.50
2023-03-05T19:24:26.350Z,6.22
2023-03-05T19:26:56.091Z,6.85
2023-03-05T19:29:25.529Z,6.00
2023-03-05T19:31:54.522Z,6.93
2023-03-05T19:34:21.969Z,6.57
2023-03-05T19:36:50.081Z,5.97
2023-03-05T19:39:17.639Z,6.22
2023-03-05T19:41:45.261Z,5.60
2023-03-05T19:44:13.386Z,6.25
2023-03-05T19:46:42.015Z,6.00
2023-03-05T19:49:10.354Z,6.07
2023-03-05T19:51:40.771Z,5.47
2023-03-05T19:54:09.621Z,6.47
2023-03-05T19:56:38.905Z,5.95
2023-03-05T19:59:07.553Z,6.03
2023-03-05T20:01:35.555Z,6.12
2023-03-05T20:04:05.181Z,5.62
2023-03-05T20:06:33.447Z,5.60
2023-03-05T20:09:01.240Z,5.25
2023-03-05T20:11:29.382Z,6.03
2023-03-05T20:13:57.303Z,5.97
2023-03-05T20:16:30.594Z,6.50
2023-03-05T20:18:59.874Z,6.10
2023-03-05T20:21:34.686Z,6.20
2023-03-05T20:24:07.324Z,5.17
2023-03-05T20:26:38.566Z,7.32
2023-03-05T20:29:07.052Z,7.50
2023-03-05T20:31:37.382Z,6.80
2023-03-05T20:34:11.639Z,6.53
2023-03-05T20:36:40.169Z,6.57
2023-03-05T20:39:08.212Z,7.35
2023-03-05T20:41:37.886Z,6.00
2023-03-05T20:44:06.912Z,6.65
2023-03-05T20:47:03.725Z,6.75
2023-03-05T20:50:05.044Z,6.87
2023-03-05T20:52:32.867Z,6.18
2023-03-05T20:55:03.995Z,6.05
2023-03-05T20:57:31.755Z,6.00
2023-03-05T21:00:03.575Z,6.32
2023-03-05T21:02:31.243Z,6.37
2023-03-05T21:04:59.217Z,6.70
2023-03-05T21:07:29.410Z,6.47
2023-03-05T21:09:56.936Z,7.47
2023-03-05T21:12:24.735Z,7.60
2023-03-05T21:14:52.183Z,7.43
2023-03-05T21:17:19.750Z,8.00
2023-03-05T21:19:47.558Z,7.43
2023-03-05T21:22:15.089Z,7.72
2023-03-05T21:25:14.721Z,8.32
2023-03-05T21:27:43.101Z,8.43
2023-03-05T21:30:11.403Z,7.60
2023-03-05T21:32:38.989Z,7.70
2023-03-05T21:35:07.363Z,8.30
2023-03-05T21:37:42.289Z,7.30
2023-03-05T21:40:16.014Z,8.20
2023-03-05T21:42:47.054Z,7.62
2023-03-05T21:45:18.543Z,8.07
2023-03-05T21:47:46.370Z,8.30
2023-03-05T21:50:16.199Z,8.27
2023-03-05T21:52:43.988Z,8.93
2023-03-05T21:55:14.257Z,7.85
2023-03-05T21:57:42.130Z,9.25
2023-03-05T22:00:12.758Z,9.32
2023-03-05T22:02:42.070Z,9.13
2023-03-05T22:05:13.106Z,9.53
2023-03-05T22:07:41.091Z,10.30
2023-03-05T22:10:16.343Z,8.85
2023-03-05T22:13:25.438Z,9.98
2023-03-05T22:15:57.611Z,8.20
2023-03-05T22:18:30.800Z,7.17
2023-03-05T22:21:03.624Z,6.60
2023-03-05T22:23:34.593Z,5.90
2023-03-05T22:26:05.268Z,8.13
2023-03-05T22:28:34.116Z,6.90
2023-03-05T22:31:02.017Z,6.87
2023-03-05T22:33:29.840Z,6.22
2023-03-05T22:35:58.322Z,5.82
2023-03-05T22:38:26.330Z,5.37
2023-03-05T22:40:53.825Z,5.15
2023-03-05T22:43:21.641Z,4.47
2023-03-05T22:45:49.540Z,4.97
2023-03-05T22:48:17.111Z,4.57
2023-03-05T22:50:44.942Z,5.10
2023-03-05T22:53:12.570Z,5.28
2023-03-05T22:55:41.481Z,5.27
2023-03-05T22:58:09.790Z,5.30
2023-03-05T23:00:37.354Z,5.65
2023-03-05T23:03:06.540Z,5.87
2023-03-05T23:05:35.568Z,5.82
2023-03-05T23:08:03.056Z,5.10
2023-03-05T23:10:30.531Z,5.53
2023-03-05T23:13:00.970Z,5.07
2023-03-05T23:15:31.641Z,5.53
2023-03-05T23:17:59.708Z,6.05
2023-03-05T23:20:30.046Z,6.20
2023-03-05T23:22:58.013Z,6.82
2023-03-05T23:25:29.358Z,6.18
2023-03-05T23:28:00.580Z,5.87
2023-03-05T23:30:33.767Z,5.62
2023-03-05T23:33:07.704Z,5.87
2023-03-05T23:35:41.606Z,5.57
2023-03-05T23:38:13.076Z,5.80
2023-03-05T23:40:43.766Z,5.40
2023-03-05T23:43:12.331Z,5.47
2023-03-05T23:45:44.428Z,5.63
2023-03-05T23:48:12.288Z,4.87
2023-03-05T23:50:43.354Z,5.37
2023-03-05T23:53:10.901Z,5.10
2023-03-05T23:55:44.208Z,6.20
2023-03-05T23:58:12.224Z,5.10
